createdAt,value
2022-10-12T00:01:16.190Z,20.30
2022-10-12T00:03:43.954Z,26.10
2022-10-12T00:06:21.293Z,23.10
2022-10-12T00:08:50.619Z,24.00
2022-10-12T00:11:22.864Z,19.60
2022-10-12T00:16:20.333Z,26.30
2022-10-12T00:18:56.723Z,24.60
2022-10-12T00:21:27.564Z,23.70
2022-10-12T00:24:01.915Z,24.10
2022-10-12T00:26:29.928Z,21.90
2022-10-12T00:29:00.145Z,24.50
2022-10-12T00:31:31.495Z,25.50
2022-10-12T00:34:01.954Z,24.10
2022-10-12T00:36:32.594Z,28.00
2022-10-12T00:39:03.491Z,31.90
2022-10-12T00:41:37.761Z,26.20
2022-10-12T00:44:42.502Z,25.70
2022-10-12T00:47:21.002Z,23.10
2022-10-12T00:49:57.821Z,23.60
2022-10-12T00:52:42.166Z,24.40
2022-10-12T00:55:19.935Z,29.20
2022-10-12T00:57:51.698Z,24.50
2022-10-12T01:02:51.718Z,25.20
2022-10-12T01:05:21.529Z,20.10
2022-10-12T01:07:53.538Z,23.50
2022-10-12T01:10:21.545Z,19.40
2022-10-12T01:12:50.645Z,24.40
2022-10-12T01:15:18.651Z,24.20
2022-10-12T01:18:05.248Z,25.70
2022-10-12T01:20:48.349Z,18.60
2022-10-12T01:23:17.090Z,16.10
2022-10-12T01:26:29.258Z,20.60
2022-10-12T01:29:15.996Z,18.20
2022-10-12T01:31:49.838Z,22.30
2022-10-12T01:34:29.009Z,22.40
2022-10-12T01:37:29.267Z,21.30
2022-10-12T01:40:00.939Z,19.20
2022-10-12T01:42:33.545Z,19.70
2022-10-12T01:45:11.224Z,18.40
2022-10-12T01:47:40.417Z,20.10
2022-10-12T01:50:12.384Z,22.60
2022-10-12T01:52:55.682Z,22.40
2022-10-12T01:55:23.962Z,21.10
2022-10-12T01:58:19.312Z,23.30
2022-10-12T02:01:16.671Z,19.10
2022-10-12T02:03:58.550Z,25.90
2022-10-12T02:06:33.298Z,20.20
2022-10-12T02:09:26.662Z,18.00
2022-10-12T02:11:58.631Z,22.80
2022-10-12T02:14:30.785Z,25.20
2022-10-12T02:19:31.841Z,19.80
2022-10-12T02:22:05.035Z,29.20
2022-10-12T02:24:37.402Z,23.30
2022-10-12T02:29:39.486Z,17.80
2022-10-12T02:32:33.552Z,18.40
2022-10-12T02:35:21.484Z,20.00
2022-10-12T02:37:51.575Z,21.10
2022-10-12T02:40:39.306Z,21.00
2022-10-12T02:43:19.926Z,20.90
2022-10-12T02:45:48.706Z,22.10
2022-10-12T02:48:20.648Z,24.50
2022-10-12T02:50:49.812Z,24.10
2022-10-12T02:53:22.385Z,25.70
2022-10-12T02:55:54.641Z,23.80
2022-10-12T02:58:26.244Z,23.20
2022-10-12T03:00:54.112Z,23.00
2022-10-12T03:03:24.653Z,21.40
2022-10-12T03:05:52.997Z,23.40
2022-10-12T03:08:20.903Z,25.70
2022-10-12T03:10:48.725Z,23.80
2022-10-12T03:13:17.519Z,22.70
2022-10-12T03:15:45.479Z,28.60
2022-10-12T03:18:14.233Z,26.40
2022-10-12T03:20:42.248Z,22.30
2022-10-12T03:23:11.312Z,25.80
2022-10-12T03:25:39.168Z,24.50
2022-10-12T03:28:07.925Z,23.80
2022-10-12T03:30:36.752Z,27.00
2022-10-12T03:33:06.268Z,23.80
2022-10-12T03:35:34.539Z,22.70
2022-10-12T03:38:02.457Z,22.00
2022-10-12T03:40:31.247Z,24.90
2022-10-12T03:42:59.037Z,21.40
2022-10-12T03:45:28.019Z,22.40
2022-10-12T03:47:58.180Z,21.50
2022-10-12T03:50:30.669Z,21.00
2022-10-12T03:52:58.618Z,21.80
2022-10-12T03:55:27.148Z,19.70
2022-10-12T03:57:55.201Z,18.80
2022-10-12T04:00:26.664Z,24.60
2022-10-12T04:02:55.991Z,20.20
2022-10-12T04:05:24.655Z,21.20
2022-10-12T04:07:52.757Z,21.80
2022-10-12T04:10:21.811Z,22.60
2022-10-12T04:12:50.311Z,22.80
2022-10-12T04:15:20.092Z,24.40
2022-10-12T04:17:47.949Z,19.90
2022-10-12T04:20:15.823Z,20.00
2022-10-12T04:22:44.659Z,25.70
2022-10-12T04:25:12.550Z,21.00
2022-10-12T04:27:40.980Z,23.60
2022-10-12T04:30:11.541Z,26.50
2022-10-12T04:32:41.889Z,20.80
2022-10-12T04:35:09.708Z,19.40
2022-10-12T04:37:37.877Z,18.80
2022-10-12T04:40:07.477Z,23.30
2022-10-12T04:42:35.338Z,18.80
2022-10-12T04:45:03.273Z,19.50
2022-10-12T04:47:31.075Z,18.90
2022-10-12T04:49:59.782Z,18.00
2022-10-12T04:52:27.551Z,22.60
2022-10-12T04:54:55.607Z,24.90
2022-10-12T04:57:23.992Z,20.00
2022-10-12T04:59:51.942Z,21.40
2022-10-12T05:02:19.906Z,25.50
2022-10-12T05:04:47.961Z,25.00
2022-10-12T05:07:16.965Z,22.80
2022-10-12T05:09:44.747Z,24.30
2022-10-12T05:12:13.163Z,29.00
2022-10-12T05:14:41.001Z,28.60
2022-10-12T05:17:08.894Z,30.40
2022-10-12T05:19:37.118Z,29.50
2022-10-12T05:22:05.327Z,29.40
2022-10-12T05:24:33.210Z,28.60
2022-10-12T05:27:01.290Z,30.90
2022-10-12T05:29:29.073Z,28.90
2022-10-12T05:31:56.982Z,34.80
2022-10-12T05:34:25.707Z,25.90
2022-10-12T05:36:54.474Z,27.00
2022-10-12T05:39:22.572Z,28.30
2022-10-12T05:41:55.951Z,29.70
2022-10-12T05:44:23.780Z,28.80
2022-10-12T05:46:51.652Z,36.60
2022-10-12T05:49:19.913Z,28.70
2022-10-12T05:51:48.493Z,26.80
2022-10-12T05:54:19.599Z,25.70
2022-10-12T05:56:48.588Z,28.10
2022-10-12T06:15:10.347Z,26.70
2022-10-12T06:17:38.450Z,31.00
2022-10-12T06:20:08.392Z,25.20
2022-10-12T06:22:42.601Z,26.40
2022-10-12T06:25:10.545Z,29.80
2022-10-12T06:27:38.709Z,26.30
2022-10-12T06:30:07.270Z,26.30
2022-10-12T06:32:36.389Z,27.70
2022-10-12T06:35:08.125Z,25.80
2022-10-12T06:37:58.742Z,25.10
2022-10-12T06:40:27.707Z,28.60
2022-10-12T06:42:58.587Z,31.90
2022-10-12T06:45:41.002Z,28.10
2022-10-12T06:48:18.251Z,23.40
2022-10-12T06:55:51.124Z,32.60
2022-10-12T06:58:38.968Z,26.70
2022-10-12T07:01:29.359Z,32.20
2022-10-12T07:04:22.853Z,28.40
2022-10-12T07:06:56.512Z,25.50
2022-10-12T07:10:04.633Z,29.30
2022-10-12T07:12:38.520Z,28.20
2022-10-12T07:15:30.740Z,30.60
2022-10-12T07:18:26.964Z,34.30
2022-10-12T07:21:17.430Z,39.40
2022-10-12T07:23:46.119Z,35.30
2022-10-12T07:29:42.334Z,39.60
2022-10-12T07:33:30.413Z,34.70
2022-10-12T07:36:13.338Z,39.00
2022-10-12T07:39:25.682Z,33.80
2022-10-12T07:42:05.091Z,38.50
2022-10-12T07:44:34.443Z,39.90
2022-10-12T07:47:24.103Z,40.90
2022-10-12T07:49:59.821Z,46.30
2022-10-12T07:52:32.281Z,42.70
2022-10-12T07:55:21.460Z,42.20
2022-10-12T07:58:05.147Z,40.80
2022-10-12T08:00:33.185Z,40.40
2022-10-12T08:06:01.752Z,36.80
2022-10-12T08:08:43.401Z,37.80
2022-10-12T08:11:25.680Z,33.70
2022-10-12T08:13:52.782Z,35.40
2022-10-12T08:16:43.530Z,38.50
2022-10-12T08:19:12.743Z,34.50
2022-10-12T08:21:43.326Z,32.10
2022-10-12T08:24:18.797Z,31.60
2022-10-12T08:26:49.412Z,36.90
2022-10-12T08:31:53.858Z,30.20
2022-10-12T08:34:36.963Z,31.80
2022-10-12T08:37:32.760Z,31.40
2022-10-12T08:40:30.169Z,34.40
2022-10-12T08:43:14.265Z,32.70
2022-10-12T08:46:13.656Z,38.20
2022-10-12T08:48:53.467Z,33.70
2022-10-12T08:51:35.277Z,37.40
2022-10-12T08:54:11.259Z,32.80
2022-10-12T08:56:41.702Z,27.10
2022-10-12T08:59:30.939Z,29.60
2022-10-12T09:02:37.696Z,25.00
2022-10-12T09:08:44.377Z,23.20
2022-10-12T09:11:49.897Z,22.80
2022-10-12T09:14:54.790Z,21.30
2022-10-12T09:18:08.004Z,22.00
2022-10-12T09:20:54.368Z,28.20
2022-10-12T09:23:53.010Z,26.50
2022-10-12T09:26:41.781Z,22.60
2022-10-12T09:29:20.483Z,20.40
2022-10-12T09:32:49.196Z,22.50
2022-10-12T09:36:14.844Z,21.50
2022-10-12T09:38:39.329Z,24.40
2022-10-12T09:41:33.896Z,25.10
2022-10-12T09:44:24.922Z,19.60
2022-10-12T09:47:06.430Z,20.80
2022-10-12T09:50:01.328Z,15.60
2022-10-12T09:52:36.005Z,18.80
2022-10-12T09:59:07.138Z,17.10
2022-10-12T10:01:46.739Z,17.60
2022-10-12T10:04:26.934Z,19.70
2022-10-12T10:07:48.502Z,20.70
2022-10-12T10:13:51.662Z,16.30
2022-10-12T10:16:38.018Z,19.00
2022-10-12T10:19:32.039Z,21.30
2022-10-12T10:22:16.121Z,17.50
2022-10-12T10:25:48.681Z,12.40
2022-10-12T10:28:31.723Z,14.20
2022-10-12T10:31:10.804Z,14.10
2022-10-12T10:34:16.340Z,14.20
2022-10-12T10:36:56.195Z,14.10
2022-10-12T10:40:07.997Z,12.80
2022-10-12T10:42:44.706Z,13.90
2022-10-12T10:45:46.906Z,12.20
2022-10-12T10:52:28.380Z,10.50
2022-10-12T10:54:30.409Z,13.60
2022-10-12T10:57:29.883Z,14.20
2022-10-12T11:03:25.848Z,11.30
2022-10-12T11:06:17.069Z,8.50
2022-10-12T11:09:31.024Z,9.90
2022-10-12T11:15:37.524Z,11.10
2022-10-12T11:18:40.647Z,11.10
2022-10-12T11:21:18.371Z,8.50
2022-10-12T11:24:26.789Z,10.10
2022-10-12T11:27:53.623Z,11.80
2022-10-12T11:30:58.164Z,12.50
2022-10-12T11:34:38.035Z,11.20
2022-10-12T11:38:04.273Z,12.20
2022-10-12T11:41:13.771Z,11.00
2022-10-12T11:47:54.676Z,12.10
2022-10-12T11:51:08.119Z,12.50
2022-10-12T11:54:22.549Z,14.10
2022-10-12T11:56:56.830Z,11.60
2022-10-12T12:00:07.996Z,10.30
2022-10-12T12:02:57.726Z,12.10
2022-10-12T12:05:41.490Z,11.10
2022-10-12T12:08:47.810Z,12.60
2022-10-12T12:15:47.855Z,12.00
2022-10-12T12:18:22.070Z,13.00
2022-10-12T12:21:22.081Z,16.00
2022-10-12T12:27:45.379Z,15.20
2022-10-12T12:30:33.010Z,14.30
2022-10-12T12:33:21.757Z,9.70
2022-10-12T12:36:07.369Z,9.40
2022-10-12T12:38:47.979Z,13.70
2022-10-12T12:41:21.061Z,16.30
2022-10-12T12:43:56.948Z,13.50
2022-10-12T12:46:48.620Z,13.60
2022-10-12T12:49:42.363Z,11.50
2022-10-12T12:52:29.550Z,10.10
2022-10-12T12:55:06.925Z,9.70
2022-10-12T12:57:59.585Z,10.00
2022-10-12T13:03:39.702Z,9.70
2022-10-12T13:06:45.308Z,9.00
2022-10-12T13:09:46.703Z,8.70
2022-10-12T13:12:33.654Z,16.40
2022-10-12T13:15:40.484Z,9.60
2022-10-12T13:18:34.566Z,9.60
2022-10-12T13:21:10.187Z,7.70
2022-10-12T13:26:09.402Z,6.90
2022-10-12T13:28:41.100Z,8.70
2022-10-12T13:31:43.822Z,8.50
2022-10-12T13:34:42.360Z,10.30
2022-10-12T13:37:17.432Z,9.00
2022-10-12T13:39:47.075Z,7.30
2022-10-12T13:42:18.800Z,7.60
2022-10-12T13:44:47.361Z,8.00
2022-10-12T13:47:27.328Z,15.20
2022-10-12T13:49:57.003Z,8.50
2022-10-12T13:52:34.525Z,10.20
2022-10-12T13:55:16.940Z,8.60
2022-10-12T13:57:56.460Z,5.60
2022-10-12T14:00:27.902Z,10.80
2022-10-12T14:03:00.294Z,5.70
2022-10-12T14:05:31.103Z,6.90
2022-10-12T14:08:03.131Z,8.00
2022-10-12T14:10:34.299Z,9.30
2022-10-12T14:13:15.522Z,7.00
2022-10-12T14:15:43.554Z,6.60
2022-10-12T14:18:57.102Z,5.40
2022-10-12T14:37:29.844Z,5.50
2022-10-12T14:40:00.840Z,5.20
2022-10-12T14:42:33.407Z,5.70
2022-10-12T14:45:04.963Z,6.30
2022-10-12T14:47:38.193Z,5.30
2022-10-12T14:50:08.810Z,6.10
2022-10-12T14:52:44.800Z,7.70
2022-10-12T14:55:18.347Z,7.70
2022-10-12T14:57:46.880Z,5.90
2022-10-12T15:00:20.179Z,24.80
2022-10-12T15:02:50.740Z,10.80
2022-10-12T15:05:21.523Z,6.80
2022-10-12T15:07:50.390Z,5.80
2022-10-12T15:10:22.602Z,8.30
2022-10-12T15:12:51.525Z,9.20
2022-10-12T15:15:37.658Z,12.00
2022-10-12T15:18:05.724Z,10.10
2022-10-12T15:20:34.642Z,9.70
2022-10-12T15:23:03.119Z,14.20
2022-10-12T15:25:59.838Z,15.20
2022-10-12T15:28:29.880Z,7.50
2022-10-12T15:33:46.849Z,8.10
2022-10-12T15:36:14.620Z,5.20
2022-10-12T15:38:42.413Z,11.10
2022-10-12T15:41:16.624Z,8.30
2022-10-12T15:43:45.829Z,5.40
2022-10-12T15:46:13.617Z,7.50
2022-10-12T15:48:41.844Z,8.60
2022-10-12T15:51:17.433Z,6.20
2022-10-12T15:53:45.239Z,6.60
2022-10-12T15:56:14.719Z,5.80
2022-10-12T15:58:43.093Z,8.50
2022-10-12T16:01:16.038Z,5.90
2022-10-12T16:03:44.935Z,5.50
2022-10-12T16:06:12.986Z,7.70
2022-10-12T16:08:40.891Z,6.90
2022-10-12T16:11:12.931Z,7.00
2022-10-12T16:16:18.929Z,7.50
2022-10-12T16:18:46.834Z,8.90
2022-10-12T16:21:14.695Z,7.70
2022-10-12T16:23:42.566Z,8.00
2022-10-12T16:26:12.756Z,5.20
2022-10-12T16:28:40.822Z,7.90
2022-10-12T16:31:12.365Z,8.30
2022-10-12T16:33:41.418Z,7.20
2022-10-12T16:36:11.422Z,8.20
2022-10-12T16:38:39.344Z,6.80
2022-10-12T16:41:16.254Z,9.00
2022-10-12T16:43:44.601Z,9.00
2022-10-12T16:46:12.829Z,8.40
2022-10-12T16:48:40.818Z,10.20
2022-10-12T16:51:10.392Z,8.90
2022-10-12T16:53:38.458Z,12.10
2022-10-12T16:56:06.725Z,8.80
2022-10-12T16:58:34.915Z,7.00
2022-10-12T17:01:11.045Z,8.40
2022-10-12T17:03:39.169Z,7.30
2022-10-12T17:06:07.644Z,11.70
2022-10-12T17:08:36.850Z,8.70
2022-10-12T17:11:10.027Z,10.00
2022-10-12T17:13:38.597Z,8.90
2022-10-12T17:16:33.816Z,8.30
2022-10-12T17:19:01.995Z,10.40
2022-10-12T17:21:29.920Z,12.20
2022-10-12T17:23:58.924Z,7.50
2022-10-12T17:26:30.826Z,8.30
2022-10-12T17:29:00.589Z,12.00
2022-10-12T17:31:28.807Z,10.80
2022-10-12T17:33:57.633Z,11.10
2022-10-12T17:36:28.678Z,10.80
2022-10-12T17:38:57.873Z,13.50
2022-10-12T17:41:26.608Z,11.10
2022-10-12T17:43:55.021Z,13.50
2022-10-12T17:46:23.067Z,15.20
2022-10-12T17:48:51.253Z,12.70
2022-10-12T17:51:19.377Z,9.30
2022-10-12T17:53:47.355Z,14.50
2022-10-12T17:56:15.944Z,20.60
2022-10-12T17:58:46.694Z,15.60
2022-10-12T18:01:16.257Z,14.70
2022-10-12T18:03:46.691Z,15.20
2022-10-12T18:06:16.958Z,12.20
2022-10-12T18:08:44.997Z,19.00
2022-10-12T18:11:13.587Z,15.40
2022-10-12T18:13:46.454Z,18.40
2022-10-12T18:16:16.611Z,19.50
2022-10-12T18:18:44.832Z,22.80
2022-10-12T18:21:14.095Z,17.60
2022-10-12T18:23:41.927Z,20.10
2022-10-12T18:26:11.082Z,30.90
2022-10-12T18:28:39.625Z,18.90
2022-10-12T18:31:07.661Z,22.70
2022-10-12T18:33:35.482Z,21.50
2022-10-12T18:36:04.962Z,23.70
2022-10-12T18:38:33.958Z,21.10
2022-10-12T18:41:04.195Z,19.40
2022-10-12T18:43:32.500Z,24.00
2022-10-12T18:46:03.642Z,20.20
2022-10-12T18:48:31.469Z,21.00
2022-10-12T18:51:15.910Z,16.60
2022-10-12T18:53:43.779Z,23.10
2022-10-12T18:56:12.717Z,16.20
2022-10-12T18:58:41.966Z,22.50
2022-10-12T19:01:12.013Z,19.50
2022-10-12T19:03:40.920Z,17.80
2022-10-12T19:06:15.456Z,18.70
2022-10-12T19:08:44.192Z,21.80
2022-10-12T19:11:13.414Z,19.50
2022-10-12T19:13:41.594Z,16.60
2022-10-12T19:16:15.927Z,20.60
2022-10-12T19:18:44.147Z,20.90
2022-10-12T19:21:17.967Z,17.60
2022-10-12T19:23:46.540Z,16.80
2022-10-12T19:26:19.572Z,19.60
2022-10-12T19:28:48.667Z,17.70
2022-10-12T19:31:20.588Z,19.20
2022-10-12T19:33:48.540Z,19.20
2022-10-12T19:36:18.534Z,20.90
2022-10-12T19:38:46.750Z,19.10
2022-10-12T19:41:14.680Z,21.10
2022-10-12T19:43:43.373Z,22.50
2022-10-12T19:46:12.179Z,24.60
2022-10-12T19:48:42.149Z,18.30
2022-10-12T19:51:12.371Z,20.10
2022-10-12T19:53:40.851Z,17.30
2022-10-12T19:56:11.495Z,16.10
2022-10-12T19:58:39.511Z,18.20
2022-10-12T20:01:10.791Z,19.80
2022-10-12T20:03:40.483Z,21.60
2022-10-12T20:06:10.220Z,18.30
2022-10-12T20:08:40.097Z,21.30
2022-10-12T20:11:09.991Z,19.00
2022-10-12T20:13:39.966Z,21.20
2022-10-12T20:16:08.205Z,22.60
2022-10-12T20:18:36.260Z,19.80
2022-10-12T20:21:08.720Z,18.70
2022-10-12T20:23:37.989Z,19.40
2022-10-12T20:26:08.490Z,22.50
2022-10-12T20:28:37.536Z,19.70
2022-10-12T20:31:06.484Z,23.70
2022-10-12T20:33:38.180Z,20.00
2022-10-12T20:36:22.074Z,17.80
2022-10-12T20:38:50.333Z,24.00
2022-10-12T20:41:18.742Z,21.50
2022-10-12T20:43:46.567Z,17.40
2022-10-12T20:46:16.039Z,17.90
2022-10-12T20:48:44.792Z,18.10
2022-10-12T20:51:19.248Z,22.60
2022-10-12T20:53:47.165Z,22.30
2022-10-12T20:56:14.990Z,19.00
2022-10-12T20:58:42.819Z,15.20
2022-10-12T21:01:13.314Z,19.70
2022-10-12T21:03:42.242Z,18.70
2022-10-12T21:06:12.458Z,21.50
2022-10-12T21:08:40.582Z,23.10
2022-10-12T21:11:10.018Z,25.20
2022-10-12T21:13:40.967Z,16.60
2022-10-12T21:16:10.515Z,19.10
2022-10-12T21:18:39.123Z,22.60
2022-10-12T21:21:12.793Z,21.90
2022-10-12T21:23:41.452Z,19.50
2022-10-12T21:26:11.416Z,20.10
2022-10-12T21:28:39.339Z,25.00
2022-10-12T21:31:07.244Z,21.40
2022-10-12T21:33:36.438Z,24.10
2022-10-12T21:36:08.880Z,17.50
2022-10-12T21:38:36.834Z,20.30
2022-10-12T21:41:05.654Z,26.00
2022-10-12T21:43:34.109Z,25.20
2022-10-12T21:46:04.180Z,28.70
2022-10-12T21:48:32.898Z,23.50
2022-10-12T21:51:01.874Z,20.80
2022-10-12T21:53:30.711Z,25.00
2022-10-12T21:55:58.456Z,21.40
2022-10-12T21:58:26.270Z,23.20
2022-10-12T22:01:04.351Z,23.00
2022-10-12T22:03:32.718Z,22.80
2022-10-12T22:06:00.571Z,28.60
2022-10-12T22:08:28.421Z,23.20
2022-10-12T22:10:56.848Z,28.00
2022-10-12T22:13:24.716Z,24.20
2022-10-12T22:16:07.239Z,21.60
2022-10-12T22:18:35.083Z,25.00
2022-10-12T22:21:08.454Z,22.50
2022-10-12T22:23:36.209Z,22.70
2022-10-12T22:26:19.915Z,25.70
2022-10-12T22:28:54.147Z,27.50
2022-10-12T22:31:23.560Z,26.60
2022-10-12T22:33:52.376Z,25.00
2022-10-12T22:36:20.222Z,19.90
2022-10-12T22:38:48.028Z,25.70
2022-10-12T22:41:18.465Z,24.30
2022-10-12T22:43:51.097Z,28.60
2022-10-12T22:46:19.855Z,27.10
2022-10-12T22:48:48.117Z,23.90
2022-10-12T22:51:21.394Z,21.30
2022-10-12T22:53:49.308Z,24.40
2022-10-12T22:56:18.570Z,25.10
2022-10-12T22:58:48.872Z,25.50
2022-10-12T23:01:30.860Z,27.20
2022-10-12T23:03:59.267Z,25.60
2022-10-12T23:06:27.082Z,30.20
2022-10-12T23:08:55.438Z,25.80
2022-10-12T23:11:25.954Z,26.90
2022-10-12T23:13:55.593Z,29.60
2022-10-12T23:16:26.824Z,26.20
2022-10-12T23:19:01.413Z,26.60
2022-10-12T23:21:30.311Z,26.50
2022-10-12T23:23:59.464Z,31.40
2022-10-12T23:26:29.074Z,22.30
2022-10-12T23:28:57.583Z,23.90
2022-10-12T23:31:27.532Z,27.20
2022-10-12T23:34:00.866Z,27.50
2022-10-12T23:36:29.780Z,24.30
2022-10-12T23:39:01.647Z,25.20
2022-10-12T23:41:29.595Z,28.20
2022-10-12T23:43:57.601Z,23.60
2022-10-12T23:46:25.745Z,24.50
2022-10-12T23:48:54.777Z,22.40
2022-10-12T23:51:22.633Z,22.80
2022-10-12T23:53:51.427Z,22.90
2022-10-12T23:56:19.353Z,25.00
2022-10-12T23:58:47.109Z,22.60
